createdAt,value
2022-09-21T00:03:36.386Z,100276.31
2022-09-21T00:08:39.692Z,100280.31
2022-09-21T00:13:46.683Z,100278.66
2022-09-21T00:18:49.583Z,100261.59
2022-09-21T00:23:52.322Z,100275.66
2022-09-21T00:28:57.885Z,100280.69
2022-09-21T00:34:01.210Z,100288.38
2022-09-21T00:39:04.798Z,100295.06
2022-09-21T00:44:25.533Z,100296.88
2022-09-21T00:49:29.105Z,100294.41
2022-09-21T00:54:37.000Z,100301.25
2022-09-21T00:59:41.921Z,100296.88
2022-09-21T01:04:45.458Z,100299.75
2022-09-21T01:09:50.332Z,100297.06
2022-09-21T01:15:00.336Z,100298.41
2022-09-21T01:20:53.812Z,100294.56
2022-09-21T01:26:04.887Z,100295.56
2022-09-21T01:31:13.045Z,100298.41
2022-09-21T01:36:18.612Z,100296.88
2022-09-21T01:41:25.974Z,100302.44
2022-09-21T01:46:31.936Z,100299.91
2022-09-21T01:51:35.041Z,100299.22
2022-09-21T01:56:41.742Z,100304.75
2022-09-21T02:01:49.233Z,100293.72
2022-09-21T02:06:54.841Z,100299.91
2022-09-21T02:11:58.379Z,100303.41
2022-09-21T02:17:08.477Z,100297.38
2022-09-21T02:22:15.270Z,100302.22
2022-09-21T02:27:27.615Z,100302.22
2022-09-21T02:32:37.969Z,100292.19
2022-09-21T02:37:46.330Z,100298.38
2022-09-21T02:42:51.356Z,100293.38
2022-09-21T02:47:59.328Z,100291.53
2022-09-21T02:53:03.119Z,100288.31
2022-09-21T02:58:07.806Z,100292.69
2022-09-21T03:03:20.116Z,100282.34
2022-09-21T03:08:23.825Z,100285.31
2022-09-21T03:13:26.603Z,100282.63
2022-09-21T03:18:31.047Z,100279.47
2022-09-21T03:23:33.823Z,100293.84
2022-09-21T03:28:36.774Z,100292.81
2022-09-21T03:33:40.872Z,100288.50
2022-09-21T03:38:43.846Z,100299.19
2022-09-21T03:43:46.616Z,100301.53
2022-09-21T03:48:50.692Z,100306.00
2022-09-21T03:53:53.553Z,100299.31
2022-09-21T03:58:56.486Z,100298.66
2022-09-21T04:04:00.615Z,100299.31
2022-09-21T04:09:03.609Z,100298.50
2022-09-21T04:14:06.387Z,100294.97
2022-09-21T04:19:10.467Z,100299.97
2022-09-21T04:24:13.201Z,100297.31
2022-09-21T04:29:16.787Z,100293.28
2022-09-21T04:34:21.165Z,100301.78
2022-09-21T04:39:24.147Z,100307.47
2022-09-21T04:44:26.928Z,100307.28
2022-09-21T04:49:31.051Z,100314.41
2022-09-21T04:54:33.819Z,100310.78
2022-09-21T04:59:37.011Z,100310.56
2022-09-21T05:04:41.158Z,100320.09
2022-09-21T05:10:01.089Z,100322.94
2022-09-21T05:15:04.031Z,100319.91
2022-09-21T05:20:08.870Z,100321.59
2022-09-21T05:25:11.573Z,100327.94
2022-09-21T05:30:15.687Z,100333.28
2022-09-21T05:35:27.407Z,100333.59
2022-09-21T05:40:30.707Z,100341.28
2022-09-21T05:45:34.300Z,100344.94
2022-09-21T05:50:51.003Z,100341.63
2022-09-21T05:55:57.563Z,100349.13
2022-09-21T06:01:10.275Z,100348.44
2022-09-21T06:06:14.442Z,100348.16
2022-09-21T06:11:17.319Z,100356.00
2022-09-21T06:16:20.131Z,100362.53
2022-09-21T06:21:24.308Z,100370.06
2022-09-21T06:26:28.725Z,100375.28
2022-09-21T06:31:31.560Z,100368.50
2022-09-21T06:36:35.670Z,100378.03
2022-09-21T06:41:38.331Z,100377.31
2022-09-21T06:46:45.914Z,100374.41
2022-09-21T06:51:50.030Z,100381.22
2022-09-21T06:56:55.784Z,100379.84
2022-09-21T07:02:00.848Z,100383.97
2022-09-21T07:07:05.298Z,100390.22
2022-09-21T07:12:08.376Z,100384.53
2022-09-21T07:17:15.597Z,100380.09
2022-09-21T07:22:19.973Z,100387.63
2022-09-21T07:27:22.800Z,100389.13
2022-09-21T07:32:26.740Z,100389.78
2022-09-21T07:37:32.857Z,100391.44
2022-09-21T07:42:35.546Z,100388.44
2022-09-21T07:47:38.332Z,100387.41
2022-09-21T07:52:42.930Z,100384.38
2022-09-21T07:58:03.493Z,100383.38
2022-09-21T08:03:06.412Z,100382.00
2022-09-21T08:08:10.715Z,100388.03
2022-09-21T08:13:13.686Z,100387.22
2022-09-21T08:18:16.458Z,100386.66
2022-09-21T08:23:20.467Z,100388.69
2022-09-21T08:28:23.248Z,100391.84
2022-09-21T08:33:29.524Z,100399.06
2022-09-21T08:38:36.143Z,100399.38
2022-09-21T08:43:42.172Z,100395.56
2022-09-21T08:48:48.504Z,100396.03
2022-09-21T08:53:53.950Z,100394.38
2022-09-21T08:58:56.669Z,100401.41
2022-09-21T09:04:10.454Z,100399.75
2022-09-21T09:09:28.349Z,100398.00
2022-09-21T09:14:47.514Z,100400.50
2022-09-21T09:19:52.899Z,100403.88
2022-09-21T09:24:58.881Z,100397.66
2022-09-21T09:30:04.671Z,100393.94
2022-09-21T09:35:17.922Z,100397.53
2022-09-21T09:40:30.986Z,100396.34
2022-09-21T09:45:40.967Z,100387.44
2022-09-21T09:50:43.917Z,100390.66
2022-09-21T09:55:49.983Z,100392.00
2022-09-21T10:00:54.052Z,100386.25
2022-09-21T10:05:56.955Z,100381.25
2022-09-21T10:11:01.144Z,100383.94
2022-09-21T10:16:06.249Z,100394.69
2022-09-21T10:21:10.399Z,100386.13
2022-09-21T10:26:14.983Z,100388.16
2022-09-21T10:31:21.516Z,100375.75
2022-09-21T10:36:32.878Z,100377.41
2022-09-21T10:41:37.661Z,100373.22
2022-09-21T10:46:40.435Z,100371.75
2022-09-21T10:51:46.083Z,100368.88
2022-09-21T10:56:55.641Z,100366.94
2022-09-21T11:01:59.869Z,100375.28
2022-09-21T11:07:10.006Z,100382.66
2022-09-21T11:12:26.724Z,100378.28
2022-09-21T11:17:43.176Z,100371.47
2022-09-21T11:22:57.321Z,100373.59
2022-09-21T11:28:07.123Z,100371.09
2022-09-21T11:33:20.346Z,100369.06
2022-09-21T11:38:35.499Z,100367.88
2022-09-21T11:44:09.787Z,100358.00
2022-09-21T11:49:38.675Z,100356.50
2022-09-21T11:54:52.824Z,100356.78
2022-09-21T12:00:16.129Z,100353.44
2022-09-21T12:05:23.815Z,100348.09
2022-09-21T12:10:41.329Z,100342.72
2022-09-21T12:15:50.225Z,100339.66
2022-09-21T12:20:57.858Z,100332.94
2022-09-21T12:26:03.348Z,100331.53
2022-09-21T12:31:11.096Z,100340.94
2022-09-21T12:36:18.136Z,100329.16
2022-09-21T12:41:25.893Z,100322.81
2022-09-21T12:46:32.506Z,100314.19
2022-09-21T12:51:37.179Z,100316.03
2022-09-21T12:56:44.850Z,100318.34
2022-09-21T13:01:56.970Z,100308.44
2022-09-21T13:07:15.053Z,100310.97
2022-09-21T13:12:21.100Z,100303.28
2022-09-21T13:17:30.623Z,100303.06
2022-09-21T13:22:34.602Z,100302.25
2022-09-21T13:28:01.508Z,100294.03
2022-09-21T13:33:39.141Z,100286.13
2022-09-21T13:38:59.087Z,100292.16
2022-09-21T13:44:05.317Z,100291.13
2022-09-21T13:49:20.095Z,100285.59
2022-09-21T13:54:25.406Z,100278.00
2022-09-21T13:59:29.015Z,100273.50
2022-09-21T14:04:36.703Z,100273.28
2022-09-21T14:09:42.891Z,100261.56
2022-09-21T14:15:12.747Z,100266.91
2022-09-21T14:20:33.590Z,100260.53
2022-09-21T14:25:50.715Z,100263.03
2022-09-21T14:30:59.037Z,100254.78
2022-09-21T14:36:08.659Z,100258.13
2022-09-21T14:41:18.058Z,100257.94
2022-09-21T14:46:59.951Z,100245.34
2022-09-21T14:52:22.260Z,100237.09
2022-09-21T14:57:52.325Z,100230.72
2022-09-21T15:03:25.249Z,100233.41
2022-09-21T15:09:02.321Z,100227.66
2022-09-21T15:14:16.955Z,100221.47
2022-09-21T15:19:24.713Z,100216.72
2022-09-21T15:24:31.277Z,100202.28
2022-09-21T15:29:34.413Z,100218.03
2022-09-21T15:34:37.457Z,100205.78
2022-09-21T15:39:41.766Z,100199.41
2022-09-21T15:44:48.663Z,100202.94
2022-09-21T15:49:54.001Z,100194.69
2022-09-21T15:55:00.324Z,100192.81
2022-09-21T16:00:05.428Z,100191.00
2022-09-21T16:05:13.993Z,100190.63
2022-09-21T16:10:40.424Z,100193.94
2022-09-21T16:15:43.319Z,100196.28
2022-09-21T16:20:48.223Z,100202.13
2022-09-21T22:04:47.248Z,100217.66
2022-09-21T22:09:50.294Z,100212.34
2022-09-21T22:14:52.964Z,100211.16
2022-09-21T22:19:56.925Z,100215.50
2022-09-21T22:24:59.520Z,100207.16
2022-09-21T22:30:02.125Z,100200.63
2022-09-21T22:35:06.966Z,100204.84
2022-09-21T22:40:10.550Z,100204.66
2022-09-21T22:45:13.309Z,100207.53
2022-09-21T22:50:17.452Z,100204.66
2022-09-21T22:55:20.371Z,100200.00
2022-09-21T23:00:23.085Z,100199.16
2022-09-21T23:05:27.541Z,100193.97
2022-09-21T23:10:30.283Z,100193.31
2022-09-21T23:15:32.956Z,100193.66
2022-09-21T23:20:37.237Z,100184.97
2022-09-21T23:25:39.956Z,100190.00
2022-09-21T23:30:42.654Z,100189.00
2022-09-21T23:35:46.799Z,100193.53
2022-09-21T23:40:49.478Z,100190.88
2022-09-21T23:45:52.431Z,100192.41
2022-09-21T23:50:56.893Z,100188.69
2022-09-21T23:56:00.073Z,100192.41
